GOGS

Cap Skirring Airport

Cap Skirring, Senegal
METAR GOGS 231200Z 20008KT 9999 SCT015 28/25 Q1014
Observed Flight Rules
Jul-23 @ 12:00 UTC (an hour ago) Visual Flight Rules
Wind Visibility Clouds
200° at 8 knots 10,000+ meters
  • Scattered at 1,500' AGL
Temperatures Readings
Current 28°C / 82°F
Dewpoint 25°C / 77°F
Humidity 84%
Altimeter 29.94" Hg
Pressure 1014 hPa
Elevation 13
METAR GOGS 231200Z 20008KT 9999 SCT015 28/25 Q1014
Observed Flight Rules
Jul-23 @ 12:00 UTC
(an hour ago)
VFR
Wind Visibility
200° at 8 knots 10,000+ meters
Clouds
  • Scattered at 1,500' AGL
Temperature Dewpoint
28°C / 82°F 25°C / 77°F
Humidity Altimeter Pressure
84% 29.94" Hg 1014 hPa